sensor_id;sensor_type;location;lat;lon;timestamp;P1;durP1;ratioP1;P2;durP2;ratioP2
9160;SDS011;4615;51.340;8.288;2023-04-01T00:01:37;3.03;;;1.30;;
9160;SDS011;4615;51.340;8.288;2023-04-01T00:04:03;2.35;;;1.50;;
9160;SDS011;4615;51.340;8.288;2023-04-01T00:06:30;3.47;;;1.45;;
9160;SDS011;4615;51.340;8.288;2023-04-01T00:08:56;2.25;;;1.30;;
9160;SDS011;4615;51.340;8.288;2023-04-01T00:11:23;3.22;;;1.50;;
9160;SDS011;4615;51.340;8.288;2023-04-01T00:13:51;2.50;;;1.23;;
9160;SDS011;4615;51.340;8.288;2023-04-01T00:16:18;2.45;;;1.48;;
9160;SDS011;4615;51.340;8.288;2023-04-01T00:18:45;2.03;;;1.30;;
9160;SDS011;4615;51.340;8.288;2023-04-01T00:21:13;3.35;;;1.33;;
9160;SDS011;4615;51.340;8.288;2023-04-01T00:23:39;3.25;;;1.40;;
9160;SDS011;4615;51.340;8.288;2023-04-01T00:26:06;3.28;;;1.30;;
9160;SDS011;4615;51.340;8.288;2023-04-01T00:28:33;2.80;;;1.20;;
9160;SDS011;4615;51.340;8.288;2023-04-01T00:31:03;2.75;;;1.30;;
9160;SDS011;4615;51.340;8.288;2023-04-01T00:33:30;3.10;;;1.40;;
9160;SDS011;4615;51.340;8.288;2023-04-01T00:36:04;2.92;;;1.30;;
9160;SDS011;4615;51.340;8.288;2023-04-01T00:38:31;2.58;;;1.30;;
9160;SDS011;4615;51.340;8.288;2023-04-01T00:40:57;2.42;;;1.20;;
9160;SDS011;4615;51.340;8.288;2023-04-01T00:43:24;1.95;;;1.15;;
9160;SDS011;4615;51.340;8.288;2023-04-01T00:45:51;2.10;;;1.10;;
9160;SDS011;4615;51.340;8.288;2023-04-01T00:48:18;3.58;;;1.50;;
9160;SDS011;4615;51.340;8.288;2023-04-01T00:50:46;2.30;;;1.30;;
9160;SDS011;4615;51.340;8.288;2023-04-01T00:53:14;3.45;;;1.23;;
9160;SDS011;4615;51.340;8.288;2023-04-01T00:55:42;2.50;;;1.30;;
9160;SDS011;4615;51.340;8.288;2023-04-01T00:58:11;2.38;;;1.40;;
9160;SDS011;4615;51.340;8.288;2023-04-01T01:00:39;1.98;;;1.30;;
9160;SDS011;4615;51.340;8.288;2023-04-01T01:03:06;2.03;;;1.27;;
9160;SDS011;4615;51.340;8.288;2023-04-01T01:05:36;2.90;;;1.30;;
9160;SDS011;4615;51.340;8.288;2023-04-01T01:08:07;2.53;;;1.38;;
9160;SDS011;4615;51.340;8.288;2023-04-01T01:10:39;2.47;;;1.20;;
9160;SDS011;4615;51.340;8.288;2023-04-01T01:13:08;2.72;;;1.20;;
9160;SDS011;4615;51.340;8.288;2023-04-01T01:15:37;1.67;;;1.00;;
9160;SDS011;4615;51.340;8.288;2023-04-01T01:18:06;3.33;;;1.30;;
9160;SDS011;4615;51.340;8.288;2023-04-01T01:26:17;1.48;;;1.20;;
9160;SDS011;4615;51.340;8.288;2023-04-01T01:28:52;2.33;;;1.10;;
9160;SDS011;4615;51.340;8.288;2023-04-01T01:31:24;1.50;;;1.10;;
9160;SDS011;4615;51.340;8.288;2023-04-01T01:33:59;1.30;;;1.00;;
9160;SDS011;4615;51.340;8.288;2023-04-01T01:36:29;1.27;;;0.90;;
9160;SDS011;4615;51.340;8.288;2023-04-01T01:38:59;2.50;;;1.30;;
9160;SDS011;4615;51.340;8.288;2023-04-01T01:41:26;1.63;;;1.08;;
9160;SDS011;4615;51.340;8.288;2023-04-01T01:43:53;1.93;;;1.10;;
9160;SDS011;4615;51.340;8.288;2023-04-01T01:46:22;1.65;;;1.00;;
9160;SDS011;4615;51.340;8.288;2023-04-01T01:48:49;1.42;;;0.85;;
9160;SDS011;4615;51.340;8.288;2023-04-01T01:51:16;1.88;;;1.00;;
9160;SDS011;4615;51.340;8.288;2023-04-01T01:53:44;1.80;;;1.00;;
9160;SDS011;4615;51.340;8.288;2023-04-01T01:56:14;1.33;;;1.00;;
9160;SDS011;4615;51.340;8.288;2023-04-01T01:58:42;1.23;;;0.98;;
9160;SDS011;4615;51.340;8.288;2023-04-01T02:01:10;1.30;;;0.90;;
9160;SDS011;4615;51.340;8.288;2023-04-01T02:03:38;1.23;;;0.90;;
9160;SDS011;4615;51.340;8.288;2023-04-01T02:06:06;1.55;;;0.90;;
9160;SDS011;4615;51.340;8.288;2023-04-01T02:08:34;1.27;;;1.00;;
9160;SDS011;4615;51.340;8.288;2023-04-01T02:11:03;1.77;;;1.08;;
9160;SDS011;4615;51.340;8.288;2023-04-01T02:13:33;1.85;;;1.00;;
9160;SDS011;4615;51.340;8.288;2023-04-01T02:16:02;1.83;;;0.90;;
9160;SDS011;4615;51.340;8.288;2023-04-01T02:18:32;2.20;;;1.15;;
9160;SDS011;4615;51.340;8.288;2023-04-01T02:21:01;1.80;;;1.10;;
9160;SDS011;4615;51.340;8.288;2023-04-01T02:23:29;0.80;;;0.80;;
9160;SDS011;4615;51.340;8.288;2023-04-01T02:25:57;1.00;;;0.90;;
9160;SDS011;4615;51.340;8.288;2023-04-01T02:28:25;1.40;;;0.90;;
9160;SDS011;4615;51.340;8.288;2023-04-01T02:30:55;2.35;;;0.95;;
9160;SDS011;4615;51.340;8.288;2023-04-01T02:33:23;0.98;;;0.77;;
9160;SDS011;4615;51.340;8.288;2023-04-01T02:35:50;1.85;;;1.00;;
9160;SDS011;4615;51.340;8.288;2023-04-01T02:38:16;1.77;;;1.00;;
9160;SDS011;4615;51.340;8.288;2023-04-01T02:40:44;2.25;;;1.02;;
9160;SDS011;4615;51.340;8.288;2023-04-01T02:43:11;1.13;;;0.80;;
9160;SDS011;4615;51.340;8.288;2023-04-01T02:45:38;0.88;;;0.88;;
9160;SDS011;4615;51.340;8.288;2023-04-01T02:48:05;1.05;;;0.90;;
9160;SDS011;4615;51.340;8.288;2023-04-01T02:50:32;0.90;;;0.70;;
9160;SDS011;4615;51.340;8.288;2023-04-01T02:52:58;1.33;;;0.77;;
9160;SDS011;4615;51.340;8.288;2023-04-01T02:55:24;0.70;;;0.70;;
9160;SDS011;4615;51.340;8.288;2023-04-01T02:57:51;0.93;;;0.90;;
9160;SDS011;4615;51.340;8.288;2023-04-01T03:00:17;2.17;;;0.77;;
9160;SDS011;4615;51.340;8.288;2023-04-01T03:02:45;1.00;;;0.80;;
9160;SDS011;4615;51.340;8.288;2023-04-01T03:05:11;1.60;;;0.80;;
9160;SDS011;4615;51.340;8.288;2023-04-01T03:07:38;1.10;;;0.80;;
9160;SDS011;4615;51.340;8.288;2023-04-01T03:10:05;1.42;;;0.80;;
9160;SDS011;4615;51.340;8.288;2023-04-01T03:12:31;1.00;;;0.82;;
9160;SDS011;4615;51.340;8.288;2023-04-01T03:14:58;1.52;;;0.90;;
9160;SDS011;4615;51.340;8.288;2023-04-01T03:17:24;0.85;;;0.80;;
9160;SDS011;4615;51.340;8.288;2023-04-01T03:19:52;0.95;;;0.90;;
9160;SDS011;4615;51.340;8.288;2023-04-01T03:22:20;0.98;;;0.88;;
9160;SDS011;4615;51.340;8.288;2023-04-01T03:24:47;1.05;;;0.90;;
9160;SDS011;4615;51.340;8.288;2023-04-01T03:27:14;1.02;;;0.88;;
9160;SDS011;4615;51.340;8.288;2023-04-01T03:29:40;1.02;;;0.90;;
9160;SDS011;4615;51.340;8.288;2023-04-01T03:32:07;0.98;;;0.90;;
9160;SDS011;4615;51.340;8.288;2023-04-01T03:34:33;1.30;;;0.90;;
9160;SDS011;4615;51.340;8.288;2023-04-01T03:37:01;1.13;;;0.90;;
9160;SDS011;4615;51.340;8.288;2023-04-01T03:39:27;1.00;;;0.85;;
9160;SDS011;4615;51.340;8.288;2023-04-01T03:41:54;0.90;;;0.80;;
9160;SDS011;4615;51.340;8.288;2023-04-01T03:44:20;1.52;;;1.05;;
9160;SDS011;4615;51.340;8.288;2023-04-01T03:46:46;1.85;;;0.98;;
9160;SDS011;4615;51.340;8.288;2023-04-01T03:49:13;0.70;;;0.70;;
9160;SDS011;4615;51.340;8.288;2023-04-01T03:51:39;1.13;;;0.90;;
9160;SDS011;4615;51.340;8.288;2023-04-01T03:54:08;1.00;;;0.88;;
9160;SDS011;4615;51.340;8.288;2023-04-01T03:56:34;1.52;;;0.90;;
9160;SDS011;4615;51.340;8.288;2023-04-01T03:59:01;1.38;;;0.82;;
9160;SDS011;4615;51.340;8.288;2023-04-01T04:01:28;1.40;;;0.93;;
9160;SDS011;4615;51.340;8.288;2023-04-01T04:03:54;0.98;;;0.75;;
9160;SDS011;4615;51.340;8.288;2023-04-01T04:06:21;1.30;;;0.80;;
9160;SDS011;4615;51.340;8.288;2023-04-01T04:08:47;2.08;;;1.00;;
9160;SDS011;4615;51.340;8.288;2023-04-01T04:11:18;1.13;;;0.73;;
9160;SDS011;4615;51.340;8.288;2023-04-01T04:13:45;1.67;;;0.88;;
9160;SDS011;4615;51.340;8.288;2023-04-01T04:16:13;1.83;;;0.93;;
9160;SDS011;4615;51.340;8.288;2023-04-01T04:18:39;2.05;;;1.02;;
9160;SDS011;4615;51.340;8.288;2023-04-01T04:21:06;0.95;;;0.70;;
9160;SDS011;4615;51.340;8.288;2023-04-01T04:23:32;0.95;;;0.70;;
9160;SDS011;4615;51.340;8.288;2023-04-01T04:26:00;1.35;;;0.90;;
9160;SDS011;4615;51.340;8.288;2023-04-01T04:28:28;1.10;;;0.88;;
9160;SDS011;4615;51.340;8.288;2023-04-01T04:30:55;0.90;;;0.90;;
9160;SDS011;4615;51.340;8.288;2023-04-01T04:33:21;1.15;;;0.85;;
9160;SDS011;4615;51.340;8.288;2023-04-01T04:35:48;1.33;;;0.98;;
9160;SDS011;4615;51.340;8.288;2023-04-01T04:38:15;0.80;;;0.70;;
9160;SDS011;4615;51.340;8.288;2023-04-01T04:40:42;1.10;;;0.83;;
9160;SDS011;4615;51.340;8.288;2023-04-01T04:43:09;0.80;;;0.80;;
9160;SDS011;4615;51.340;8.288;2023-04-01T04:45:37;0.75;;;0.70;;
9160;SDS011;4615;51.340;8.288;2023-04-01T04:48:04;1.00;;;0.77;;
9160;SDS011;4615;51.340;8.288;2023-04-01T04:50:30;1.60;;;0.80;;
9160;SDS011;4615;51.340;8.288;2023-04-01T04:52:57;0.85;;;0.80;;
9160;SDS011;4615;51.340;8.288;2023-04-01T04:55:23;1.13;;;0.80;;
9160;SDS011;4615;51.340;8.288;2023-04-01T04:57:49;1.30;;;0.80;;
9160;SDS011;4615;51.340;8.288;2023-04-01T05:00:16;0.80;;;0.68;;
9160;SDS011;4615;51.340;8.288;2023-04-01T05:02:44;1.02;;;0.75;;
9160;SDS011;4615;51.340;8.288;2023-04-01T05:05:10;0.90;;;0.60;;
9160;SDS011;4615;51.340;8.288;2023-04-01T05:07:37;0.75;;;0.60;;
9160;SDS011;4615;51.340;8.288;2023-04-01T05:10:03;1.02;;;0.73;;
9160;SDS011;4615;51.340;8.288;2023-04-01T05:12:30;0.75;;;0.70;;
9160;SDS011;4615;51.340;8.288;2023-04-01T05:15:01;1.48;;;0.70;;
9160;SDS011;4615;51.340;8.288;2023-04-01T05:17:27;0.60;;;0.60;;
9160;SDS011;4615;51.340;8.288;2023-04-01T05:19:55;1.02;;;0.73;;
9160;SDS011;4615;51.340;8.288;2023-04-01T05:22:21;0.70;;;0.70;;
9160;SDS011;4615;51.340;8.288;2023-04-01T05:24:48;0.93;;;0.50;;
9160;SDS011;4615;51.340;8.288;2023-04-01T05:27:15;1.30;;;0.75;;
9160;SDS011;4615;51.340;8.288;2023-04-01T05:29:41;0.70;;;0.70;;
9160;SDS011;4615;51.340;8.288;2023-04-01T05:32:07;1.23;;;0.82;;
9160;SDS011;4615;51.340;8.288;2023-04-01T05:34:34;0.60;;;0.60;;
9160;SDS011;4615;51.340;8.288;2023-04-01T05:37:02;0.90;;;0.70;;
9160;SDS011;4615;51.340;8.288;2023-04-01T05:39:28;0.90;;;0.70;;
9160;SDS011;4615;51.340;8.288;2023-04-01T05:41:55;1.15;;;0.80;;
9160;SDS011;4615;51.340;8.288;2023-04-01T05:44:21;0.63;;;0.60;;
9160;SDS011;4615;51.340;8.288;2023-04-01T05:46:47;1.33;;;0.70;;
9160;SDS011;4615;51.340;8.288;2023-04-01T05:49:14;1.00;;;0.70;;
9160;SDS011;4615;51.340;8.288;2023-04-01T05:51:40;1.02;;;0.77;;
9160;SDS011;4615;51.340;8.288;2023-04-01T05:54:08;1.05;;;0.75;;
9160;SDS011;4615;51.340;8.288;2023-04-01T05:56:34;0.70;;;0.70;;
9160;SDS011;4615;51.340;8.288;2023-04-01T05:59:01;1.30;;;0.90;;
9160;SDS011;4615;51.340;8.288;2023-04-01T06:01:27;1.02;;;0.93;;
9160;SDS011;4615;51.340;8.288;2023-04-01T06:03:53;0.88;;;0.77;;
9160;SDS011;4615;51.340;8.288;2023-04-01T06:06:23;1.83;;;0.80;;
9160;SDS011;4615;51.340;8.288;2023-04-01T06:08:49;0.60;;;0.60;;
9160;SDS011;4615;51.340;8.288;2023-04-01T06:11:21;0.85;;;0.80;;
9160;SDS011;4615;51.340;8.288;2023-04-01T06:13:53;1.48;;;1.25;;
9160;SDS011;4615;51.340;8.288;2023-04-01T06:16:27;1.25;;;0.80;;
9160;SDS011;4615;51.340;8.288;2023-04-01T06:18:59;0.70;;;0.70;;
9160;SDS011;4615;51.340;8.288;2023-04-01T06:21:37;0.98;;;0.70;;
9160;SDS011;4615;51.340;8.288;2023-04-01T06:24:19;1.17;;;0.80;;
9160;SDS011;4615;51.340;8.288;2023-04-01T06:26:51;0.70;;;0.70;;
9160;SDS011;4615;51.340;8.288;2023-04-01T06:29:26;1.08;;;0.70;;
9160;SDS011;4615;51.340;8.288;2023-04-01T06:32:03;0.80;;;0.80;;
9160;SDS011;4615;51.340;8.288;2023-04-01T06:37:23;0.73;;;0.70;;
9160;SDS011;4615;51.340;8.288;2023-04-01T06:40:02;0.70;;;0.70;;
9160;SDS011;4615;51.340;8.288;2023-04-01T06:42:46;1.42;;;0.75;;
9160;SDS011;4615;51.340;8.288;2023-04-01T06:45:17;0.70;;;0.70;;
9160;SDS011;4615;51.340;8.288;2023-04-01T06:47:49;0.82;;;0.80;;
9160;SDS011;4615;51.340;8.288;2023-04-01T06:50:19;0.73;;;0.73;;
9160;SDS011;4615;51.340;8.288;2023-04-01T06:52:49;0.90;;;0.60;;
9160;SDS011;4615;51.340;8.288;2023-04-01T06:55:19;1.30;;;0.73;;
9160;SDS011;4615;51.340;8.288;2023-04-01T06:57:49;0.60;;;0.60;;
9160;SDS011;4615;51.340;8.288;2023-04-01T07:00:19;0.68;;;0.68;;
9160;SDS011;4615;51.340;8.288;2023-04-01T07:02:49;0.70;;;0.67;;
9160;SDS011;4615;51.340;8.288;2023-04-01T07:05:20;1.65;;;1.00;;
9160;SDS011;4615;51.340;8.288;2023-04-01T07:07:48;0.75;;;0.75;;
9160;SDS011;4615;51.340;8.288;2023-04-01T07:10:17;0.80;;;0.80;;
9160;SDS011;4615;51.340;8.288;2023-04-01T07:12:46;0.70;;;0.70;;
9160;SDS011;4615;51.340;8.288;2023-04-01T07:15:17;0.63;;;0.63;;
9160;SDS011;4615;51.340;8.288;2023-04-01T07:17:45;0.82;;;0.80;;
9160;SDS011;4615;51.340;8.288;2023-04-01T07:20:13;1.13;;;0.80;;
9160;SDS011;4615;51.340;8.288;2023-04-01T07:22:43;0.80;;;0.80;;
9160;SDS011;4615;51.340;8.288;2023-04-01T07:25:13;0.80;;;0.73;;
9160;SDS011;4615;51.340;8.288;2023-04-01T07:27:40;0.70;;;0.70;;
9160;SDS011;4615;51.340;8.288;2023-04-01T07:30:12;0.63;;;0.60;;
9160;SDS011;4615;51.340;8.288;2023-04-01T07:32:41;0.80;;;0.80;;
9160;SDS011;4615;51.340;8.288;2023-04-01T07:35:13;0.70;;;0.70;;
9160;SDS011;4615;51.340;8.288;2023-04-01T07:37:46;1.10;;;0.80;;
9160;SDS011;4615;51.340;8.288;2023-04-01T07:40:20;0.75;;;0.60;;
9160;SDS011;4615;51.340;8.288;2023-04-01T07:42:52;0.70;;;0.70;;
9160;SDS011;4615;51.340;8.288;2023-04-01T07:45:22;0.70;;;0.70;;
9160;SDS011;4615;51.340;8.288;2023-04-01T07:47:54;0.65;;;0.60;;
9160;SDS011;4615;51.340;8.288;2023-04-01T07:50:26;0.70;;;0.70;;
9160;SDS011;4615;51.340;8.288;2023-04-01T07:52:55;0.60;;;0.60;;
9160;SDS011;4615;51.340;8.288;2023-04-01T07:55:28;1.13;;;1.02;;
9160;SDS011;4615;51.340;8.288;2023-04-01T07:57:57;0.88;;;0.88;;
9160;SDS011;4615;51.340;8.288;2023-04-01T08:00:27;0.90;;;0.60;;
9160;SDS011;4615;51.340;8.288;2023-04-01T08:05:45;0.90;;;0.90;;
9160;SDS011;4615;51.340;8.288;2023-04-01T08:08:14;1.10;;;0.80;;
9160;SDS011;4615;51.340;8.288;2023-04-01T08:10:44;0.90;;;0.77;;
9160;SDS011;4615;51.340;8.288;2023-04-01T08:13:13;0.70;;;0.70;;
9160;SDS011;4615;51.340;8.288;2023-04-01T08:15:43;0.90;;;0.90;;
9160;SDS011;4615;51.340;8.288;2023-04-01T08:18:16;0.63;;;0.63;;
9160;SDS011;4615;51.340;8.288;2023-04-01T08:20:51;0.60;;;0.60;;
9160;SDS011;4615;51.340;8.288;2023-04-01T08:23:19;1.57;;;0.70;;
9160;SDS011;4615;51.340;8.288;2023-04-01T08:25:48;0.70;;;0.70;;
9160;SDS011;4615;51.340;8.288;2023-04-01T08:28:17;0.80;;;0.80;;
9160;SDS011;4615;51.340;8.288;2023-04-01T08:30:47;0.70;;;0.70;;
9160;SDS011;4615;51.340;8.288;2023-04-01T08:33:15;0.70;;;0.70;;
9160;SDS011;4615;51.340;8.288;2023-04-01T08:35:45;0.88;;;0.77;;
9160;SDS011;4615;51.340;8.288;2023-04-01T08:38:15;0.80;;;0.80;;
9160;SDS011;4615;51.340;8.288;2023-04-01T08:46:28;0.80;;;0.80;;
9160;SDS011;4615;51.340;8.288;2023-04-01T08:49:11;0.70;;;0.70;;
9160;SDS011;4615;51.340;8.288;2023-04-01T08:51:47;0.83;;;0.83;;
9160;SDS011;4615;51.340;8.288;2023-04-01T08:54:22;0.73;;;0.73;;
9160;SDS011;4615;51.340;8.288;2023-04-01T08:56:55;0.70;;;0.70;;
9160;SDS011;4615;51.340;8.288;2023-04-01T08:59:27;1.40;;;0.80;;
9160;SDS011;4615;51.340;8.288;2023-04-01T09:02:16;0.70;;;0.70;;
9160;SDS011;4615;51.340;8.288;2023-04-01T09:04:52;0.70;;;0.70;;
9160;SDS011;4615;51.340;8.288;2023-04-01T09:07:29;0.77;;;0.77;;
9160;SDS011;4615;51.340;8.288;2023-04-01T09:12:51;1.10;;;0.82;;
9160;SDS011;4615;51.340;8.288;2023-04-01T09:15:35;0.77;;;0.77;;
9160;SDS011;4615;51.340;8.288;2023-04-01T09:18:09;1.20;;;1.10;;
9160;SDS011;4615;51.340;8.288;2023-04-01T09:20:42;1.50;;;1.40;;
9160;SDS011;4615;51.340;8.288;2023-04-01T09:23:16;1.50;;;1.40;;
9160;SDS011;4615;51.340;8.288;2023-04-01T09:25:52;2.08;;;1.88;;
9160;SDS011;4615;51.340;8.288;2023-04-01T09:28:22;1.70;;;1.40;;
9160;SDS011;4615;51.340;8.288;2023-04-01T09:33:54;1.00;;;0.90;;
9160;SDS011;4615;51.340;8.288;2023-04-01T09:36:31;1.00;;;1.00;;
9160;SDS011;4615;51.340;8.288;2023-04-01T09:39:09;1.10;;;1.00;;
9160;SDS011;4615;51.340;8.288;2023-04-01T09:41:45;1.02;;;0.90;;
9160;SDS011;4615;51.340;8.288;2023-04-01T09:44:20;0.90;;;0.90;;
9160;SDS011;4615;51.340;8.288;2023-04-01T09:46:53;0.90;;;0.90;;
9160;SDS011;4615;51.340;8.288;2023-04-01T09:49:32;0.93;;;0.93;;
9160;SDS011;4615;51.340;8.288;2023-04-01T09:52:05;1.00;;;1.00;;
9160;SDS011;4615;51.340;8.288;2023-04-01T09:54:37;1.00;;;1.00;;
9160;SDS011;4615;51.340;8.288;2023-04-01T09:59:53;0.98;;;0.98;;
9160;SDS011;4615;51.340;8.288;2023-04-01T10:02:33;0.90;;;0.90;;
9160;SDS011;4615;51.340;8.288;2023-04-01T10:08:00;1.00;;;1.00;;
9160;SDS011;4615;51.340;8.288;2023-04-01T10:10:36;0.80;;;0.80;;
9160;SDS011;4615;51.340;8.288;2023-04-01T10:13:22;0.90;;;0.90;;
9160;SDS011;4615;51.340;8.288;2023-04-01T10:18:59;0.80;;;0.80;;
9160;SDS011;4615;51.340;8.288;2023-04-01T10:24:39;0.90;;;0.90;;
9160;SDS011;4615;51.340;8.288;2023-04-01T10:27:14;0.88;;;0.88;;
9160;SDS011;4615;51.340;8.288;2023-04-01T10:29:50;0.90;;;0.90;;
9160;SDS011;4615;51.340;8.288;2023-04-01T10:32:25;0.90;;;0.90;;
9160;SDS011;4615;51.340;8.288;2023-04-01T10:35:08;0.90;;;0.90;;
9160;SDS011;4615;51.340;8.288;2023-04-01T10:40:35;0.90;;;0.90;;
9160;SDS011;4615;51.340;8.288;2023-04-01T10:51:22;0.90;;;0.90;;
9160;SDS011;4615;51.340;8.288;2023-04-01T10:56:40;1.38;;;1.08;;
9160;SDS011;4615;51.340;8.288;2023-04-01T11:02:06;1.10;;;1.10;;
9160;SDS011;4615;51.340;8.288;2023-04-01T11:10:20;1.10;;;1.00;;
9160;SDS011;4615;51.340;8.288;2023-04-01T11:15:39;1.30;;;1.00;;
9160;SDS011;4615;51.340;8.288;2023-04-01T11:18:41;1.25;;;1.15;;
9160;SDS011;4615;51.340;8.288;2023-04-01T11:21:16;1.10;;;1.00;;
9160;SDS011;4615;51.340;8.288;2023-04-01T11:23:50;0.90;;;0.90;;
9160;SDS011;4615;51.340;8.288;2023-04-01T11:26:21;0.90;;;0.90;;
9160;SDS011;4615;51.340;8.288;2023-04-01T11:28:57;1.40;;;1.00;;
9160;SDS011;4615;51.340;8.288;2023-04-01T11:31:33;1.10;;;1.00;;
9160;SDS011;4615;51.340;8.288;2023-04-01T11:34:03;1.00;;;1.00;;
9160;SDS011;4615;51.340;8.288;2023-04-01T11:36:34;1.10;;;1.10;;
9160;SDS011;4615;51.340;8.288;2023-04-01T11:39:07;1.45;;;1.20;;
9160;SDS011;4615;51.340;8.288;2023-04-01T11:41:38;1.00;;;1.00;;
9160;SDS011;4615;51.340;8.288;2023-04-01T11:44:14;1.50;;;1.20;;
9160;SDS011;4615;51.340;8.288;2023-04-01T11:46:44;1.10;;;1.10;;
9160;SDS011;4615;51.340;8.288;2023-04-01T11:49:18;1.10;;;1.10;;
9160;SDS011;4615;51.340;8.288;2023-04-01T11:51:55;1.00;;;1.00;;
9160;SDS011;4615;51.340;8.288;2023-04-01T11:54:28;0.90;;;0.90;;
9160;SDS011;4615;51.340;8.288;2023-04-01T11:57:09;0.90;;;0.90;;
9160;SDS011;4615;51.340;8.288;2023-04-01T12:02:33;0.93;;;0.93;;
9160;SDS011;4615;51.340;8.288;2023-04-01T12:05:12;0.90;;;0.90;;
9160;SDS011;4615;51.340;8.288;2023-04-01T12:07:55;0.90;;;0.90;;
9160;SDS011;4615;51.340;8.288;2023-04-01T12:10:25;1.20;;;1.10;;
9160;SDS011;4615;51.340;8.288;2023-04-01T12:12:57;0.95;;;0.90;;
9160;SDS011;4615;51.340;8.288;2023-04-01T12:15:27;0.90;;;0.90;;
9160;SDS011;4615;51.340;8.288;2023-04-01T12:17:56;0.90;;;0.90;;
9160;SDS011;4615;51.340;8.288;2023-04-01T12:20:29;1.00;;;1.00;;
9160;SDS011;4615;51.340;8.288;2023-04-01T12:23:01;1.00;;;1.00;;
9160;SDS011;4615;51.340;8.288;2023-04-01T12:25:34;0.90;;;0.90;;
9160;SDS011;4615;51.340;8.288;2023-04-01T12:28:08;0.80;;;0.80;;
9160;SDS011;4615;51.340;8.288;2023-04-01T12:30:39;0.80;;;0.80;;
9160;SDS011;4615;51.340;8.288;2023-04-01T12:35:59;1.15;;;1.10;;
9160;SDS011;4615;51.340;8.288;2023-04-01T12:38:29;0.90;;;0.90;;
9160;SDS011;4615;51.340;8.288;2023-04-01T12:41:06;0.70;;;0.70;;
9160;SDS011;4615;51.340;8.288;2023-04-01T12:43:48;0.82;;;0.82;;
9160;SDS011;4615;51.340;8.288;2023-04-01T12:46:19;1.10;;;1.10;;
9160;SDS011;4615;51.340;8.288;2023-04-01T12:49:02;1.20;;;1.02;;
9160;SDS011;4615;51.340;8.288;2023-04-01T12:51:47;1.00;;;1.00;;
9160;SDS011;4615;51.340;8.288;2023-04-01T12:54:20;1.00;;;1.00;;
9160;SDS011;4615;51.340;8.288;2023-04-01T12:56:53;1.00;;;1.00;;
9160;SDS011;4615;51.340;8.288;2023-04-01T12:59:29;1.00;;;1.00;;
9160;SDS011;4615;51.340;8.288;2023-04-01T13:02:00;1.25;;;1.20;;
9160;SDS011;4615;51.340;8.288;2023-04-01T13:04:36;0.90;;;0.90;;
9160;SDS011;4615;51.340;8.288;2023-04-01T13:07:11;0.80;;;0.80;;
9160;SDS011;4615;51.340;8.288;2023-04-01T13:09:42;0.88;;;0.88;;
9160;SDS011;4615;51.340;8.288;2023-04-01T13:15:14;1.17;;;1.10;;
9160;SDS011;4615;51.340;8.288;2023-04-01T13:17:46;1.05;;;0.90;;
9160;SDS011;4615;51.340;8.288;2023-04-01T13:20:19;0.90;;;0.90;;
9160;SDS011;4615;51.340;8.288;2023-04-01T13:22:51;0.73;;;0.73;;
9160;SDS011;4615;51.340;8.288;2023-04-01T13:25:21;1.17;;;0.90;;
9160;SDS011;4615;51.340;8.288;2023-04-01T13:27:51;0.90;;;0.90;;
9160;SDS011;4615;51.340;8.288;2023-04-01T13:30:24;0.82;;;0.82;;
9160;SDS011;4615;51.340;8.288;2023-04-01T13:32:54;2.45;;;2.25;;
9160;SDS011;4615;51.340;8.288;2023-04-01T13:35:26;1.00;;;1.00;;
9160;SDS011;4615;51.340;8.288;2023-04-01T13:38:00;0.80;;;0.80;;
9160;SDS011;4615;51.340;8.288;2023-04-01T13:40:34;1.00;;;1.00;;
9160;SDS011;4615;51.340;8.288;2023-04-01T13:43:03;1.17;;;1.10;;
9160;SDS011;4615;51.340;8.288;2023-04-01T13:45:34;1.80;;;1.70;;
9160;SDS011;4615;51.340;8.288;2023-04-01T13:51:03;1.00;;;1.00;;
9160;SDS011;4615;51.340;8.288;2023-04-01T13:53:50;0.80;;;0.80;;
9160;SDS011;4615;51.340;8.288;2023-04-01T13:56:24;1.10;;;1.10;;
9160;SDS011;4615;51.340;8.288;2023-04-01T14:01:50;0.90;;;0.90;;
9160;SDS011;4615;51.340;8.288;2023-04-01T14:04:29;1.05;;;1.05;;
9160;SDS011;4615;51.340;8.288;2023-04-01T14:07:00;1.10;;;1.10;;
9160;SDS011;4615;51.340;8.288;2023-04-01T14:09:32;1.13;;;1.00;;
9160;SDS011;4615;51.340;8.288;2023-04-01T14:12:04;1.10;;;0.90;;
9160;SDS011;4615;51.340;8.288;2023-04-01T14:14:35;1.15;;;1.15;;
9160;SDS011;4615;51.340;8.288;2023-04-01T14:20:08;1.30;;;1.20;;
9160;SDS011;4615;51.340;8.288;2023-04-01T14:22:44;1.73;;;1.40;;
9160;SDS011;4615;51.340;8.288;2023-04-01T14:25:21;1.23;;;1.23;;
9160;SDS011;4615;51.340;8.288;2023-04-01T14:27:51;1.40;;;1.30;;
9160;SDS011;4615;51.340;8.288;2023-04-01T14:33:12;2.10;;;2.00;;
9160;SDS011;4615;51.340;8.288;2023-04-01T14:35:46;1.43;;;1.30;;
9160;SDS011;4615;51.340;8.288;2023-04-01T14:41:00;2.50;;;2.30;;
9160;SDS011;4615;51.340;8.288;2023-04-01T14:43:38;2.30;;;2.10;;
9160;SDS011;4615;51.340;8.288;2023-04-01T14:46:09;1.70;;;1.60;;
9160;SDS011;4615;51.340;8.288;2023-04-01T14:48:49;2.27;;;1.90;;
9160;SDS011;4615;51.340;8.288;2023-04-01T14:51:18;1.80;;;1.60;;
9160;SDS011;4615;51.340;8.288;2023-04-01T14:53:51;1.40;;;1.30;;
9160;SDS011;4615;51.340;8.288;2023-04-01T14:56:34;3.00;;;2.70;;
9160;SDS011;4615;51.340;8.288;2023-04-01T14:59:01;4.32;;;3.92;;
9160;SDS011;4615;51.340;8.288;2023-04-01T15:01:32;3.45;;;3.15;;
9160;SDS011;4615;51.340;8.288;2023-04-01T15:04:09;1.90;;;1.80;;
9160;SDS011;4615;51.340;8.288;2023-04-01T15:06:48;3.70;;;3.35;;
9160;SDS011;4615;51.340;8.288;2023-04-01T15:09:18;4.47;;;4.07;;
9160;SDS011;4615;51.340;8.288;2023-04-01T15:11:54;1.90;;;1.80;;
9160;SDS011;4615;51.340;8.288;2023-04-01T15:14:31;1.90;;;1.80;;
9160;SDS011;4615;51.340;8.288;2023-04-01T15:17:05;2.00;;;1.90;;
9160;SDS011;4615;51.340;8.288;2023-04-01T15:19:43;1.70;;;1.60;;
9160;SDS011;4615;51.340;8.288;2023-04-01T15:22:23;1.23;;;1.23;;
9160;SDS011;4615;51.340;8.288;2023-04-01T15:24:56;1.70;;;1.60;;
9160;SDS011;4615;51.340;8.288;2023-04-01T15:27:28;1.80;;;1.70;;
9160;SDS011;4615;51.340;8.288;2023-04-01T15:30:12;1.50;;;1.40;;
9160;SDS011;4615;51.340;8.288;2023-04-01T15:35:26;1.60;;;1.50;;
9160;SDS011;4615;51.340;8.288;2023-04-01T15:38:01;1.80;;;1.70;;
9160;SDS011;4615;51.340;8.288;2023-04-01T15:40:31;2.20;;;2.10;;
9160;SDS011;4615;51.340;8.288;2023-04-01T15:43:02;2.03;;;1.92;;
9160;SDS011;4615;51.340;8.288;2023-04-01T15:45:31;2.50;;;2.30;;
9160;SDS011;4615;51.340;8.288;2023-04-01T15:48:05;2.30;;;2.20;;
9160;SDS011;4615;51.340;8.288;2023-04-01T15:50:36;1.90;;;1.80;;
9160;SDS011;4615;51.340;8.288;2023-04-01T15:53:13;1.90;;;1.80;;
9160;SDS011;4615;51.340;8.288;2023-04-01T15:55:43;2.28;;;2.08;;
9160;SDS011;4615;51.340;8.288;2023-04-01T15:58:20;2.00;;;1.90;;
9160;SDS011;4615;51.340;8.288;2023-04-01T16:00:53;2.15;;;1.98;;
9160;SDS011;4615;51.340;8.288;2023-04-01T16:03:24;2.00;;;1.90;;
9160;SDS011;4615;51.340;8.288;2023-04-01T16:05:59;2.10;;;2.00;;
9160;SDS011;4615;51.340;8.288;2023-04-01T16:08:39;2.30;;;2.10;;
9160;SDS011;4615;51.340;8.288;2023-04-01T16:11:10;2.33;;;2.23;;
9160;SDS011;4615;51.340;8.288;2023-04-01T16:13:46;2.00;;;1.90;;
9160;SDS011;4615;51.340;8.288;2023-04-01T16:16:18;1.70;;;1.60;;
9160;SDS011;4615;51.340;8.288;2023-04-01T16:18:51;2.10;;;1.90;;
9160;SDS011;4615;51.340;8.288;2023-04-01T16:21:26;1.70;;;1.60;;
9160;SDS011;4615;51.340;8.288;2023-04-01T16:23:57;1.77;;;1.67;;
9160;SDS011;4615;51.340;8.288;2023-04-01T16:26:26;1.60;;;1.50;;
9160;SDS011;4615;51.340;8.288;2023-04-01T16:28:57;1.60;;;1.50;;
9160;SDS011;4615;51.340;8.288;2023-04-01T16:31:31;2.00;;;1.90;;
9160;SDS011;4615;51.340;8.288;2023-04-01T16:34:01;1.80;;;1.70;;
9160;SDS011;4615;51.340;8.288;2023-04-01T16:36:30;1.58;;;1.48;;
9160;SDS011;4615;51.340;8.288;2023-04-01T16:39:08;1.80;;;1.70;;
9160;SDS011;4615;51.340;8.288;2023-04-01T16:41:38;1.70;;;1.60;;
9160;SDS011;4615;51.340;8.288;2023-04-01T16:44:13;1.57;;;1.47;;
9160;SDS011;4615;51.340;8.288;2023-04-01T16:46:43;1.60;;;1.50;;
9160;SDS011;4615;51.340;8.288;2023-04-01T16:49:27;1.20;;;1.20;;
9160;SDS011;4615;51.340;8.288;2023-04-01T16:51:57;1.40;;;1.30;;
9160;SDS011;4615;51.340;8.288;2023-04-01T16:54:28;1.30;;;1.20;;
9160;SDS011;4615;51.340;8.288;2023-04-01T16:57:01;1.10;;;1.10;;
9160;SDS011;4615;51.340;8.288;2023-04-01T16:59:29;1.30;;;1.10;;
9160;SDS011;4615;51.340;8.288;2023-04-01T17:02:02;1.27;;;1.17;;
9160;SDS011;4615;51.340;8.288;2023-04-01T17:04:30;1.40;;;1.30;;